sensor_id;sensor_type;location;lat;lon;timestamp;P1;durP1;ratioP1;P2;durP2;ratioP2
2023;SDS011;1016;48.770;9.154;2023-04-15T00:00:37;22.30;;;3.50;;
2023;SDS011;1016;48.770;9.154;2023-04-15T00:03:03;20.30;;;3.10;;
2023;SDS011;1016;48.770;9.154;2023-04-15T00:05:32;20.40;;;3.50;;
2023;SDS011;1016;48.770;9.154;2023-04-15T00:07:58;20.07;;;3.00;;
2023;SDS011;1016;48.770;9.154;2023-04-15T00:10:25;24.63;;;3.23;;
2023;SDS011;1016;48.770;9.154;2023-04-15T00:12:51;20.90;;;3.50;;
2023;SDS011;1016;48.770;9.154;2023-04-15T00:15:17;20.33;;;3.40;;
2023;SDS011;1016;48.770;9.154;2023-04-15T00:17:42;19.47;;;3.00;;
2023;SDS011;1016;48.770;9.154;2023-04-15T00:20:08;20.57;;;2.80;;
2023;SDS011;1016;48.770;9.154;2023-04-15T00:22:34;20.03;;;3.17;;
2023;SDS011;1016;48.770;9.154;2023-04-15T00:25:00;20.37;;;2.93;;
2023;SDS011;1016;48.770;9.154;2023-04-15T00:27:27;21.97;;;2.87;;
2023;SDS011;1016;48.770;9.154;2023-04-15T00:29:53;19.13;;;2.87;;
2023;SDS011;1016;48.770;9.154;2023-04-15T00:32:19;19.97;;;3.20;;
2023;SDS011;1016;48.770;9.154;2023-04-15T00:34:44;20.40;;;3.40;;
2023;SDS011;1016;48.770;9.154;2023-04-15T00:37:10;21.13;;;3.30;;
2023;SDS011;1016;48.770;9.154;2023-04-15T00:39:36;20.20;;;3.23;;
2023;SDS011;1016;48.770;9.154;2023-04-15T00:42:03;19.70;;;3.10;;
2023;SDS011;1016;48.770;9.154;2023-04-15T00:44:29;21.83;;;3.17;;
2023;SDS011;1016;48.770;9.154;2023-04-15T00:46:54;19.10;;;3.03;;
2023;SDS011;1016;48.770;9.154;2023-04-15T00:49:21;20.83;;;3.50;;
2023;SDS011;1016;48.770;9.154;2023-04-15T00:51:47;21.20;;;3.13;;
2023;SDS011;1016;48.770;9.154;2023-04-15T00:54:13;19.90;;;3.00;;
2023;SDS011;1016;48.770;9.154;2023-04-15T00:56:38;21.37;;;3.10;;
2023;SDS011;1016;48.770;9.154;2023-04-15T00:59:04;22.10;;;3.53;;
2023;SDS011;1016;48.770;9.154;2023-04-15T01:01:32;20.77;;;3.70;;
2023;SDS011;1016;48.770;9.154;2023-04-15T01:03:59;19.27;;;3.23;;
2023;SDS011;1016;48.770;9.154;2023-04-15T01:06:25;20.30;;;3.60;;
2023;SDS011;1016;48.770;9.154;2023-04-15T01:08:51;20.47;;;3.47;;
2023;SDS011;1016;48.770;9.154;2023-04-15T01:11:18;20.87;;;3.50;;
2023;SDS011;1016;48.770;9.154;2023-04-15T01:13:44;20.47;;;3.83;;
2023;SDS011;1016;48.770;9.154;2023-04-15T01:16:11;22.40;;;4.00;;
2023;SDS011;1016;48.770;9.154;2023-04-15T01:18:38;21.03;;;3.30;;
2023;SDS011;1016;48.770;9.154;2023-04-15T01:21:04;19.97;;;3.30;;
2023;SDS011;1016;48.770;9.154;2023-04-15T01:23:31;20.90;;;3.60;;
2023;SDS011;1016;48.770;9.154;2023-04-15T01:25:57;22.40;;;4.23;;
2023;SDS011;1016;48.770;9.154;2023-04-15T01:28:23;21.80;;;3.63;;
2023;SDS011;1016;48.770;9.154;2023-04-15T01:30:49;26.20;;;3.87;;
2023;SDS011;1016;48.770;9.154;2023-04-15T01:33:30;19.73;;;3.20;;
2023;SDS011;1016;48.770;9.154;2023-04-15T01:35:56;21.23;;;3.10;;
2023;SDS011;1016;48.770;9.154;2023-04-15T01:38:21;20.23;;;3.43;;
2023;SDS011;1016;48.770;9.154;2023-04-15T01:40:47;20.53;;;3.33;;
2023;SDS011;1016;48.770;9.154;2023-04-15T01:43:12;20.40;;;3.70;;
2023;SDS011;1016;48.770;9.154;2023-04-15T01:45:39;23.73;;;3.73;;
2023;SDS011;1016;48.770;9.154;2023-04-15T01:48:04;20.13;;;3.13;;
2023;SDS011;1016;48.770;9.154;2023-04-15T01:50:31;21.60;;;3.27;;
2023;SDS011;1016;48.770;9.154;2023-04-15T01:52:56;20.53;;;3.33;;
2023;SDS011;1016;48.770;9.154;2023-04-15T01:55:22;20.07;;;2.97;;
2023;SDS011;1016;48.770;9.154;2023-04-15T01:57:47;19.73;;;3.60;;
2023;SDS011;1016;48.770;9.154;2023-04-15T02:00:13;19.40;;;3.03;;
2023;SDS011;1016;48.770;9.154;2023-04-15T02:02:39;20.93;;;3.40;;
2023;SDS011;1016;48.770;9.154;2023-04-15T02:05:04;22.00;;;3.03;;
2023;SDS011;1016;48.770;9.154;2023-04-15T02:07:30;23.57;;;3.40;;
2023;SDS011;1016;48.770;9.154;2023-04-15T02:09:56;21.60;;;3.37;;
2023;SDS011;1016;48.770;9.154;2023-04-15T02:12:22;21.47;;;3.13;;
2023;SDS011;1016;48.770;9.154;2023-04-15T02:14:47;21.10;;;3.00;;
2023;SDS011;1016;48.770;9.154;2023-04-15T02:17:12;21.57;;;3.37;;
2023;SDS011;1016;48.770;9.154;2023-04-15T02:19:38;22.67;;;3.50;;
2023;SDS011;1016;48.770;9.154;2023-04-15T02:22:04;21.77;;;3.50;;
2023;SDS011;1016;48.770;9.154;2023-04-15T02:24:32;23.40;;;3.33;;
2023;SDS011;1016;48.770;9.154;2023-04-15T02:26:57;21.20;;;3.43;;
2023;SDS011;1016;48.770;9.154;2023-04-15T02:29:23;19.93;;;3.10;;
2023;SDS011;1016;48.770;9.154;2023-04-15T02:31:49;19.40;;;3.33;;
2023;SDS011;1016;48.770;9.154;2023-04-15T02:34:14;22.97;;;4.20;;
2023;SDS011;1016;48.770;9.154;2023-04-15T02:36:40;20.20;;;3.30;;
2023;SDS011;1016;48.770;9.154;2023-04-15T02:39:06;22.60;;;3.97;;
2023;SDS011;1016;48.770;9.154;2023-04-15T02:41:31;25.43;;;3.77;;
2023;SDS011;1016;48.770;9.154;2023-04-15T02:43:57;22.27;;;3.90;;
2023;SDS011;1016;48.770;9.154;2023-04-15T02:46:22;23.40;;;4.17;;
2023;SDS011;1016;48.770;9.154;2023-04-15T02:48:49;21.37;;;3.57;;
2023;SDS011;1016;48.770;9.154;2023-04-15T02:51:15;20.47;;;3.77;;
2023;SDS011;1016;48.770;9.154;2023-04-15T02:53:43;24.00;;;3.90;;
2023;SDS011;1016;48.770;9.154;2023-04-15T02:56:09;20.43;;;3.40;;
2023;SDS011;1016;48.770;9.154;2023-04-15T02:58:35;21.00;;;3.90;;
2023;SDS011;1016;48.770;9.154;2023-04-15T03:01:01;20.67;;;3.87;;
2023;SDS011;1016;48.770;9.154;2023-04-15T03:03:26;23.33;;;3.70;;
2023;SDS011;1016;48.770;9.154;2023-04-15T03:05:52;22.30;;;3.87;;
2023;SDS011;1016;48.770;9.154;2023-04-15T03:08:18;24.00;;;4.30;;
2023;SDS011;1016;48.770;9.154;2023-04-15T03:10:45;21.63;;;3.73;;
2023;SDS011;1016;48.770;9.154;2023-04-15T03:13:11;23.07;;;3.83;;
2023;SDS011;1016;48.770;9.154;2023-04-15T03:15:36;20.50;;;3.50;;
2023;SDS011;1016;48.770;9.154;2023-04-15T03:18:02;20.50;;;3.83;;
2023;SDS011;1016;48.770;9.154;2023-04-15T03:20:27;21.03;;;3.77;;
2023;SDS011;1016;48.770;9.154;2023-04-15T03:22:53;21.30;;;3.20;;
2023;SDS011;1016;48.770;9.154;2023-04-15T03:25:18;21.13;;;3.57;;
2023;SDS011;1016;48.770;9.154;2023-04-15T03:27:44;23.27;;;3.70;;
2023;SDS011;1016;48.770;9.154;2023-04-15T03:30:10;20.60;;;3.37;;
2023;SDS011;1016;48.770;9.154;2023-04-15T03:32:36;22.80;;;3.97;;
2023;SDS011;1016;48.770;9.154;2023-04-15T03:35:01;23.87;;;3.80;;
2023;SDS011;1016;48.770;9.154;2023-04-15T03:37:27;20.47;;;3.30;;
2023;SDS011;1016;48.770;9.154;2023-04-15T03:39:53;24.40;;;3.50;;
2023;SDS011;1016;48.770;9.154;2023-04-15T03:42:18;21.47;;;3.40;;
2023;SDS011;1016;48.770;9.154;2023-04-15T03:44:43;22.50;;;3.50;;
2023;SDS011;1016;48.770;9.154;2023-04-15T03:47:09;20.53;;;3.40;;
2023;SDS011;1016;48.770;9.154;2023-04-15T03:49:35;23.57;;;3.93;;
2023;SDS011;1016;48.770;9.154;2023-04-15T03:52:01;19.97;;;3.27;;
2023;SDS011;1016;48.770;9.154;2023-04-15T03:54:26;21.83;;;3.20;;
2023;SDS011;1016;48.770;9.154;2023-04-15T03:56:52;20.93;;;3.10;;
2023;SDS011;1016;48.770;9.154;2023-04-15T03:59:17;21.77;;;3.53;;
2023;SDS011;1016;48.770;9.154;2023-04-15T04:01:43;20.10;;;3.13;;
2023;SDS011;1016;48.770;9.154;2023-04-15T04:04:08;22.63;;;3.80;;
2023;SDS011;1016;48.770;9.154;2023-04-15T04:06:34;20.57;;;3.77;;
2023;SDS011;1016;48.770;9.154;2023-04-15T04:09:00;20.93;;;3.30;;
2023;SDS011;1016;48.770;9.154;2023-04-15T04:11:26;20.10;;;3.40;;
2023;SDS011;1016;48.770;9.154;2023-04-15T04:13:52;21.33;;;3.63;;
2023;SDS011;1016;48.770;9.154;2023-04-15T04:16:17;19.53;;;3.13;;
2023;SDS011;1016;48.770;9.154;2023-04-15T04:18:43;22.83;;;3.90;;
2023;SDS011;1016;48.770;9.154;2023-04-15T04:21:09;21.00;;;3.60;;
2023;SDS011;1016;48.770;9.154;2023-04-15T04:23:35;22.20;;;3.63;;
2023;SDS011;1016;48.770;9.154;2023-04-15T04:26:00;22.33;;;3.60;;
2023;SDS011;1016;48.770;9.154;2023-04-15T04:28:26;24.87;;;4.17;;
2023;SDS011;1016;48.770;9.154;2023-04-15T04:30:52;21.10;;;3.73;;
2023;SDS011;1016;48.770;9.154;2023-04-15T04:33:18;22.97;;;4.10;;
2023;SDS011;1016;48.770;9.154;2023-04-15T04:35:43;20.50;;;3.70;;
2023;SDS011;1016;48.770;9.154;2023-04-15T04:38:10;22.93;;;4.00;;
2023;SDS011;1016;48.770;9.154;2023-04-15T04:40:35;21.17;;;3.67;;
2023;SDS011;1016;48.770;9.154;2023-04-15T04:43:01;23.50;;;3.57;;
2023;SDS011;1016;48.770;9.154;2023-04-15T04:45:27;21.20;;;4.10;;
2023;SDS011;1016;48.770;9.154;2023-04-15T04:47:52;22.10;;;4.00;;
2023;SDS011;1016;48.770;9.154;2023-04-15T04:50:18;21.20;;;3.80;;
2023;SDS011;1016;48.770;9.154;2023-04-15T04:52:43;19.60;;;3.33;;
2023;SDS011;1016;48.770;9.154;2023-04-15T04:55:09;20.23;;;3.53;;
2023;SDS011;1016;48.770;9.154;2023-04-15T04:57:34;21.13;;;4.03;;
2023;SDS011;1016;48.770;9.154;2023-04-15T05:00:00;20.87;;;3.57;;
2023;SDS011;1016;48.770;9.154;2023-04-15T05:02:27;23.13;;;4.17;;
2023;SDS011;1016;48.770;9.154;2023-04-15T05:04:52;20.33;;;4.03;;
2023;SDS011;1016;48.770;9.154;2023-04-15T05:07:18;22.27;;;3.77;;
2023;SDS011;1016;48.770;9.154;2023-04-15T05:09:44;22.30;;;4.00;;
2023;SDS011;1016;48.770;9.154;2023-04-15T05:12:10;20.70;;;3.70;;
2023;SDS011;1016;48.770;9.154;2023-04-15T05:14:39;22.00;;;3.80;;
2023;SDS011;1016;48.770;9.154;2023-04-15T05:17:05;21.20;;;3.83;;
2023;SDS011;1016;48.770;9.154;2023-04-15T05:19:31;20.53;;;3.93;;
2023;SDS011;1016;48.770;9.154;2023-04-15T05:21:57;22.90;;;3.90;;
2023;SDS011;1016;48.770;9.154;2023-04-15T05:24:22;21.17;;;3.80;;
2023;SDS011;1016;48.770;9.154;2023-04-15T05:26:48;22.40;;;3.67;;
2023;SDS011;1016;48.770;9.154;2023-04-15T05:29:13;22.53;;;4.00;;
2023;SDS011;1016;48.770;9.154;2023-04-15T05:31:39;21.13;;;3.93;;
2023;SDS011;1016;48.770;9.154;2023-04-15T05:34:04;23.50;;;4.50;;
2023;SDS011;1016;48.770;9.154;2023-04-15T05:36:31;23.70;;;4.50;;
2023;SDS011;1016;48.770;9.154;2023-04-15T05:38:57;23.00;;;4.17;;
2023;SDS011;1016;48.770;9.154;2023-04-15T05:41:22;21.30;;;4.17;;
2023;SDS011;1016;48.770;9.154;2023-04-15T05:43:48;21.50;;;4.20;;
2023;SDS011;1016;48.770;9.154;2023-04-15T05:46:13;22.10;;;4.80;;
2023;SDS011;1016;48.770;9.154;2023-04-15T05:48:39;22.07;;;4.40;;
2023;SDS011;1016;48.770;9.154;2023-04-15T05:51:04;22.50;;;4.37;;
2023;SDS011;1016;48.770;9.154;2023-04-15T05:53:30;21.93;;;4.20;;
2023;SDS011;1016;48.770;9.154;2023-04-15T05:55:55;23.43;;;5.60;;
2023;SDS011;1016;48.770;9.154;2023-04-15T05:58:21;23.13;;;4.70;;
2023;SDS011;1016;48.770;9.154;2023-04-15T06:00:47;22.23;;;4.10;;
2023;SDS011;1016;48.770;9.154;2023-04-15T06:03:12;24.53;;;4.33;;
2023;SDS011;1016;48.770;9.154;2023-04-15T06:05:38;22.80;;;5.40;;
2023;SDS011;1016;48.770;9.154;2023-04-15T06:08:04;22.33;;;4.77;;
2023;SDS011;1016;48.770;9.154;2023-04-15T06:10:30;20.90;;;4.17;;
2023;SDS011;1016;48.770;9.154;2023-04-15T06:13:00;23.07;;;4.50;;
2023;SDS011;1016;48.770;9.154;2023-04-15T06:15:28;23.77;;;4.90;;
2023;SDS011;1016;48.770;9.154;2023-04-15T06:17:54;25.13;;;4.90;;
2023;SDS011;1016;48.770;9.154;2023-04-15T06:20:20;22.80;;;4.70;;
2023;SDS011;1016;48.770;9.154;2023-04-15T06:22:45;22.27;;;4.90;;
2023;SDS011;1016;48.770;9.154;2023-04-15T06:25:11;23.30;;;4.77;;
2023;SDS011;1016;48.770;9.154;2023-04-15T06:27:37;22.53;;;4.63;;
2023;SDS011;1016;48.770;9.154;2023-04-15T06:30:03;23.47;;;4.20;;
2023;SDS011;1016;48.770;9.154;2023-04-15T06:32:28;22.93;;;4.30;;
2023;SDS011;1016;48.770;9.154;2023-04-15T06:34:54;23.33;;;4.57;;
2023;SDS011;1016;48.770;9.154;2023-04-15T06:37:20;26.97;;;4.17;;
2023;SDS011;1016;48.770;9.154;2023-04-15T06:39:46;21.60;;;3.60;;
2023;SDS011;1016;48.770;9.154;2023-04-15T06:42:11;23.77;;;4.40;;
2023;SDS011;1016;48.770;9.154;2023-04-15T06:44:37;20.57;;;3.67;;
2023;SDS011;1016;48.770;9.154;2023-04-15T06:47:03;21.70;;;4.13;;
2023;SDS011;1016;48.770;9.154;2023-04-15T06:49:28;21.57;;;3.80;;
2023;SDS011;1016;48.770;9.154;2023-04-15T06:51:54;20.33;;;3.80;;
2023;SDS011;1016;48.770;9.154;2023-04-15T06:54:19;21.53;;;4.37;;
2023;SDS011;1016;48.770;9.154;2023-04-15T06:56:45;22.10;;;4.37;;
2023;SDS011;1016;48.770;9.154;2023-04-15T06:59:11;22.17;;;4.00;;
2023;SDS011;1016;48.770;9.154;2023-04-15T07:01:38;24.53;;;5.43;;
2023;SDS011;1016;48.770;9.154;2023-04-15T07:04:05;23.73;;;5.60;;
2023;SDS011;1016;48.770;9.154;2023-04-15T07:06:30;24.50;;;6.00;;
2023;SDS011;1016;48.770;9.154;2023-04-15T07:08:56;29.73;;;6.17;;
2023;SDS011;1016;48.770;9.154;2023-04-15T07:11:22;23.53;;;5.40;;
2023;SDS011;1016;48.770;9.154;2023-04-15T07:13:49;24.40;;;5.70;;
2023;SDS011;1016;48.770;9.154;2023-04-15T07:16:15;23.60;;;5.53;;
2023;SDS011;1016;48.770;9.154;2023-04-15T07:18:40;24.93;;;5.10;;
2023;SDS011;1016;48.770;9.154;2023-04-15T07:21:06;22.20;;;4.33;;
2023;SDS011;1016;48.770;9.154;2023-04-15T07:23:32;23.03;;;5.10;;
2023;SDS011;1016;48.770;9.154;2023-04-15T07:25:57;29.40;;;5.43;;
2023;SDS011;1016;48.770;9.154;2023-04-15T07:28:23;23.33;;;4.93;;
2023;SDS011;1016;48.770;9.154;2023-04-15T07:30:48;23.57;;;4.90;;
2023;SDS011;1016;48.770;9.154;2023-04-15T07:33:14;25.67;;;4.70;;
2023;SDS011;1016;48.770;9.154;2023-04-15T07:35:39;21.50;;;4.20;;
2023;SDS011;1016;48.770;9.154;2023-04-15T07:38:05;20.67;;;3.80;;
2023;SDS011;1016;48.770;9.154;2023-04-15T07:40:31;22.10;;;4.37;;
2023;SDS011;1016;48.770;9.154;2023-04-15T07:42:57;22.50;;;4.30;;
2023;SDS011;1016;48.770;9.154;2023-04-15T07:45:22;21.20;;;4.20;;
2023;SDS011;1016;48.770;9.154;2023-04-15T07:47:48;23.23;;;4.27;;
2023;SDS011;1016;48.770;9.154;2023-04-15T07:50:15;23.47;;;4.00;;
2023;SDS011;1016;48.770;9.154;2023-04-15T07:52:41;22.87;;;4.50;;
2023;SDS011;1016;48.770;9.154;2023-04-15T07:55:07;24.73;;;5.20;;
2023;SDS011;1016;48.770;9.154;2023-04-15T07:57:33;22.30;;;4.83;;
2023;SDS011;1016;48.770;9.154;2023-04-15T08:00:00;27.50;;;4.70;;
2023;SDS011;1016;48.770;9.154;2023-04-15T08:02:27;22.93;;;4.70;;
2023;SDS011;1016;48.770;9.154;2023-04-15T08:04:53;27.03;;;4.90;;
2023;SDS011;1016;48.770;9.154;2023-04-15T08:07:18;24.77;;;4.80;;
2023;SDS011;1016;48.770;9.154;2023-04-15T08:09:44;24.70;;;5.03;;
2023;SDS011;1016;48.770;9.154;2023-04-15T08:12:10;23.27;;;4.63;;
2023;SDS011;1016;48.770;9.154;2023-04-15T08:14:37;22.13;;;4.90;;
2023;SDS011;1016;48.770;9.154;2023-04-15T08:17:03;21.73;;;4.50;;
2023;SDS011;1016;48.770;9.154;2023-04-15T08:19:29;23.20;;;5.47;;
2023;SDS011;1016;48.770;9.154;2023-04-15T08:21:55;23.53;;;4.97;;
2023;SDS011;1016;48.770;9.154;2023-04-15T08:24:21;25.00;;;4.40;;
2023;SDS011;1016;48.770;9.154;2023-04-15T08:26:47;23.37;;;4.50;;
2023;SDS011;1016;48.770;9.154;2023-04-15T08:29:13;23.13;;;4.83;;
2023;SDS011;1016;48.770;9.154;2023-04-15T08:31:39;23.27;;;5.00;;
2023;SDS011;1016;48.770;9.154;2023-04-15T08:34:04;22.10;;;5.20;;
2023;SDS011;1016;48.770;9.154;2023-04-15T08:36:30;22.17;;;4.37;;
2023;SDS011;1016;48.770;9.154;2023-04-15T08:38:56;22.87;;;5.07;;
2023;SDS011;1016;48.770;9.154;2023-04-15T08:41:22;25.30;;;4.53;;
2023;SDS011;1016;48.770;9.154;2023-04-15T08:43:53;22.20;;;4.53;;
2023;SDS011;1016;48.770;9.154;2023-04-15T08:46:19;21.70;;;4.33;;
2023;SDS011;1016;48.770;9.154;2023-04-15T08:48:45;20.90;;;4.10;;
2023;SDS011;1016;48.770;9.154;2023-04-15T08:51:11;23.00;;;4.50;;
2023;SDS011;1016;48.770;9.154;2023-04-15T08:53:40;21.30;;;4.20;;
2023;SDS011;1016;48.770;9.154;2023-04-15T08:56:07;22.37;;;4.30;;
2023;SDS011;1016;48.770;9.154;2023-04-15T08:58:35;22.97;;;4.20;;
2023;SDS011;1016;48.770;9.154;2023-04-15T09:01:02;25.30;;;4.20;;
2023;SDS011;1016;48.770;9.154;2023-04-15T09:03:27;22.00;;;3.17;;
2023;SDS011;1016;48.770;9.154;2023-04-15T09:05:53;19.80;;;3.57;;
2023;SDS011;1016;48.770;9.154;2023-04-15T09:08:18;22.30;;;3.27;;
2023;SDS011;1016;48.770;9.154;2023-04-15T09:10:44;19.70;;;2.50;;
2023;SDS011;1016;48.770;9.154;2023-04-15T09:13:10;20.93;;;3.17;;
2023;SDS011;1016;48.770;9.154;2023-04-15T09:15:37;20.30;;;2.43;;
2023;SDS011;1016;48.770;9.154;2023-04-15T09:18:02;18.80;;;2.13;;
2023;SDS011;1016;48.770;9.154;2023-04-15T09:20:28;18.93;;;2.73;;
2023;SDS011;1016;48.770;9.154;2023-04-15T09:22:54;20.03;;;2.30;;
2023;SDS011;1016;48.770;9.154;2023-04-15T09:27:49;20.10;;;2.50;;
2023;SDS011;1016;48.770;9.154;2023-04-15T09:30:16;18.87;;;2.77;;
2023;SDS011;1016;48.770;9.154;2023-04-15T09:32:56;18.80;;;2.40;;
2023;SDS011;1016;48.770;9.154;2023-04-15T09:35:23;18.93;;;2.57;;
2023;SDS011;1016;48.770;9.154;2023-04-15T09:37:51;19.67;;;3.23;;
2023;SDS011;1016;48.770;9.154;2023-04-15T09:42:59;18.80;;;2.50;;
2023;SDS011;1016;48.770;9.154;2023-04-15T09:45:29;20.70;;;2.70;;
2023;SDS011;1016;48.770;9.154;2023-04-15T09:47:56;20.70;;;2.97;;
2023;SDS011;1016;48.770;9.154;2023-04-15T09:50:22;19.50;;;2.60;;
2023;SDS011;1016;48.770;9.154;2023-04-15T09:52:52;20.47;;;2.87;;
2023;SDS011;1016;48.770;9.154;2023-04-15T09:55:17;20.10;;;2.63;;
2023;SDS011;1016;48.770;9.154;2023-04-15T09:57:43;19.40;;;2.63;;
2023;SDS011;1016;48.770;9.154;2023-04-15T10:00:11;20.23;;;2.70;;
2023;SDS011;1016;48.770;9.154;2023-04-15T10:02:38;23.63;;;3.00;;
2023;SDS011;1016;48.770;9.154;2023-04-15T10:05:06;20.00;;;2.97;;
2023;SDS011;1016;48.770;9.154;2023-04-15T10:07:34;18.47;;;2.57;;
2023;SDS011;1016;48.770;9.154;2023-04-15T10:10:00;19.90;;;2.90;;
2023;SDS011;1016;48.770;9.154;2023-04-15T10:12:28;18.70;;;2.67;;
2023;SDS011;1016;48.770;9.154;2023-04-15T10:14:55;22.53;;;2.50;;
2023;SDS011;1016;48.770;9.154;2023-04-15T10:17:24;20.20;;;2.70;;
2023;SDS011;1016;48.770;9.154;2023-04-15T10:19:52;18.53;;;2.17;;
2023;SDS011;1016;48.770;9.154;2023-04-15T10:22:18;20.03;;;2.63;;
2023;SDS011;1016;48.770;9.154;2023-04-15T10:24:45;21.63;;;3.30;;
2023;SDS011;1016;48.770;9.154;2023-04-15T10:27:11;19.17;;;2.90;;
2023;SDS011;1016;48.770;9.154;2023-04-15T10:29:37;20.57;;;2.80;;
2023;SDS011;1016;48.770;9.154;2023-04-15T10:32:03;18.17;;;2.60;;
2023;SDS011;1016;48.770;9.154;2023-04-15T10:34:29;20.40;;;2.70;;
2023;SDS011;1016;48.770;9.154;2023-04-15T10:36:58;22.13;;;3.10;;
2023;SDS011;1016;48.770;9.154;2023-04-15T10:42:32;19.10;;;3.33;;
2023;SDS011;1016;48.770;9.154;2023-04-15T10:44:57;21.27;;;3.10;;
2023;SDS011;1016;48.770;9.154;2023-04-15T10:47:23;19.03;;;3.43;;
2023;SDS011;1016;48.770;9.154;2023-04-15T10:49:58;20.20;;;2.87;;
2023;SDS011;1016;48.770;9.154;2023-04-15T10:52:26;21.13;;;3.10;;
2023;SDS011;1016;48.770;9.154;2023-04-15T10:55:35;18.93;;;3.20;;
2023;SDS011;1016;48.770;9.154;2023-04-15T10:57:46;21.53;;;3.47;;
2023;SDS011;1016;48.770;9.154;2023-04-15T11:00:15;19.00;;;3.30;;
2023;SDS011;1016;48.770;9.154;2023-04-15T11:02:51;21.90;;;2.87;;
2023;SDS011;1016;48.770;9.154;2023-04-15T11:05:22;20.10;;;3.00;;
2023;SDS011;1016;48.770;9.154;2023-04-15T11:08:08;19.30;;;2.90;;
2023;SDS011;1016;48.770;9.154;2023-04-15T11:13:04;21.27;;;3.67;;
2023;SDS011;1016;48.770;9.154;2023-04-15T11:15:40;20.70;;;3.33;;
2023;SDS011;1016;48.770;9.154;2023-04-15T11:18:13;22.20;;;3.30;;
2023;SDS011;1016;48.770;9.154;2023-04-15T11:20:41;21.73;;;3.27;;
2023;SDS011;1016;48.770;9.154;2023-04-15T11:23:11;19.10;;;3.20;;
2023;SDS011;1016;48.770;9.154;2023-04-15T11:25:38;21.90;;;3.47;;
2023;SDS011;1016;48.770;9.154;2023-04-15T11:28:03;19.13;;;3.13;;
2023;SDS011;1016;48.770;9.154;2023-04-15T11:30:31;19.17;;;3.27;;
2023;SDS011;1016;48.770;9.154;2023-04-15T11:33:02;20.17;;;2.80;;
2023;SDS011;1016;48.770;9.154;2023-04-15T11:35:29;19.40;;;3.00;;
2023;SDS011;1016;48.770;9.154;2023-04-15T11:37:55;21.20;;;3.30;;
2023;SDS011;1016;48.770;9.154;2023-04-15T11:40:22;21.00;;;3.50;;
2023;SDS011;1016;48.770;9.154;2023-04-15T11:48:26;21.27;;;3.47;;
2023;SDS011;1016;48.770;9.154;2023-04-15T11:51:04;19.90;;;3.53;;
2023;SDS011;1016;48.770;9.154;2023-04-15T11:53:47;19.87;;;3.10;;
2023;SDS011;1016;48.770;9.154;2023-04-15T11:56:20;21.10;;;3.30;;
2023;SDS011;1016;48.770;9.154;2023-04-15T11:58:48;20.33;;;4.00;;
2023;SDS011;1016;48.770;9.154;2023-04-15T12:01:17;20.73;;;3.70;;
2023;SDS011;1016;48.770;9.154;2023-04-15T12:03:45;20.17;;;3.37;;
2023;SDS011;1016;48.770;9.154;2023-04-15T12:06:14;24.80;;;3.93;;
2023;SDS011;1016;48.770;9.154;2023-04-15T12:16:30;21.00;;;3.80;;
2023;SDS011;1016;48.770;9.154;2023-04-15T12:19:06;23.90;;;3.93;;
2023;SDS011;1016;48.770;9.154;2023-04-15T12:21:36;20.70;;;3.80;;
2023;SDS011;1016;48.770;9.154;2023-04-15T12:24:04;18.87;;;3.47;;
2023;SDS011;1016;48.770;9.154;2023-04-15T12:26:34;20.07;;;3.93;;
2023;SDS011;1016;48.770;9.154;2023-04-15T12:29:11;21.07;;;4.07;;
2023;SDS011;1016;48.770;9.154;2023-04-15T12:31:47;18.77;;;3.50;;
2023;SDS011;1016;48.770;9.154;2023-04-15T12:34:14;21.20;;;3.40;;
2023;SDS011;1016;48.770;9.154;2023-04-15T12:36:40;19.00;;;2.97;;
2023;SDS011;1016;48.770;9.154;2023-04-15T12:39:06;19.27;;;3.50;;
2023;SDS011;1016;48.770;9.154;2023-04-15T12:41:32;19.20;;;3.13;;
2023;SDS011;1016;48.770;9.154;2023-04-15T12:43:57;20.27;;;3.20;;
2023;SDS011;1016;48.770;9.154;2023-04-15T12:46:23;18.70;;;3.17;;
2023;SDS011;1016;48.770;9.154;2023-04-15T12:48:49;19.27;;;3.80;;
2023;SDS011;1016;48.770;9.154;2023-04-15T12:51:17;21.43;;;4.80;;
2023;SDS011;1016;48.770;9.154;2023-04-15T12:53:42;19.53;;;3.50;;
2023;SDS011;1016;48.770;9.154;2023-04-15T12:56:08;21.30;;;3.70;;
2023;SDS011;1016;48.770;9.154;2023-04-15T12:58:33;19.67;;;3.73;;
2023;SDS011;1016;48.770;9.154;2023-04-15T13:00:59;19.43;;;3.03;;
2023;SDS011;1016;48.770;9.154;2023-04-15T13:03:25;21.60;;;3.20;;
2023;SDS011;1016;48.770;9.154;2023-04-15T13:05:51;21.57;;;3.40;;
2023;SDS011;1016;48.770;9.154;2023-04-15T13:08:17;19.30;;;3.27;;
2023;SDS011;1016;48.770;9.154;2023-04-15T13:10:42;19.30;;;2.97;;
2023;SDS011;1016;48.770;9.154;2023-04-15T13:13:08;20.40;;;3.40;;
2023;SDS011;1016;48.770;9.154;2023-04-15T13:15:34;19.80;;;3.00;;
2023;SDS011;1016;48.770;9.154;2023-04-15T13:17:59;19.40;;;2.90;;
2023;SDS011;1016;48.770;9.154;2023-04-15T13:20:25;19.03;;;2.90;;
2023;SDS011;1016;48.770;9.154;2023-04-15T13:22:52;19.73;;;3.13;;
2023;SDS011;1016;48.770;9.154;2023-04-15T13:25:18;18.27;;;2.70;;
2023;SDS011;1016;48.770;9.154;2023-04-15T13:27:43;19.73;;;2.87;;
2023;SDS011;1016;48.770;9.154;2023-04-15T13:30:09;19.20;;;2.90;;
2023;SDS011;1016;48.770;9.154;2023-04-15T13:32:35;19.50;;;3.00;;
2023;SDS011;1016;48.770;9.154;2023-04-15T13:35:00;18.80;;;3.00;;
2023;SDS011;1016;48.770;9.154;2023-04-15T13:37:26;19.70;;;2.70;;
2023;SDS011;1016;48.770;9.154;2023-04-15T13:39:53;20.27;;;2.97;;
2023;SDS011;1016;48.770;9.154;2023-04-15T13:42:19;19.77;;;3.20;;
2023;SDS011;1016;48.770;9.154;2023-04-15T13:44:45;18.47;;;2.27;;
2023;SDS011;1016;48.770;9.154;2023-04-15T13:47:11;19.20;;;2.30;;
2023;SDS011;1016;48.770;9.154;2023-04-15T13:49:38;18.80;;;1.93;;
2023;SDS011;1016;48.770;9.154;2023-04-15T13:52:04;19.07;;;1.80;;
2023;SDS011;1016;48.770;9.154;2023-04-15T13:54:30;18.57;;;2.13;;
2023;SDS011;1016;48.770;9.154;2023-04-15T13:56:55;18.23;;;1.60;;
2023;SDS011;1016;48.770;9.154;2023-04-15T13:59:22;17.33;;;1.70;;
2023;SDS011;1016;48.770;9.154;2023-04-15T14:01:47;18.73;;;1.60;;
2023;SDS011;1016;48.770;9.154;2023-04-15T14:04:13;17.87;;;1.80;;
2023;SDS011;1016;48.770;9.154;2023-04-15T14:06:38;18.37;;;2.10;;
2023;SDS011;1016;48.770;9.154;2023-04-15T14:09:04;17.70;;;2.10;;
2023;SDS011;1016;48.770;9.154;2023-04-15T14:11:29;18.03;;;1.80;;
2023;SDS011;1016;48.770;9.154;2023-04-15T14:13:55;17.70;;;1.77;;
2023;SDS011;1016;48.770;9.154;2023-04-15T14:16:21;17.00;;;1.60;;
2023;SDS011;1016;48.770;9.154;2023-04-15T14:18:46;17.00;;;1.33;;
2023;SDS011;1016;48.770;9.154;2023-04-15T14:21:12;16.90;;;1.33;;
2023;SDS011;1016;48.770;9.154;2023-04-15T14:23:38;17.33;;;1.33;;
2023;SDS011;1016;48.770;9.154;2023-04-15T14:26:03;16.80;;;1.40;;
2023;SDS011;1016;48.770;9.154;2023-04-15T14:28:29;17.30;;;1.60;;
2023;SDS011;1016;48.770;9.154;2023-04-15T14:30:56;16.63;;;1.50;;
2023;SDS011;1016;48.770;9.154;2023-04-15T14:33:22;16.93;;;1.70;;
2023;SDS011;1016;48.770;9.154;2023-04-15T14:35:48;20.47;;;1.77;;
2023;SDS011;1016;48.770;9.154;2023-04-15T14:38:15;17.37;;;1.70;;
2023;SDS011;1016;48.770;9.154;2023-04-15T14:40:41;17.60;;;1.90;;
2023;SDS011;1016;48.770;9.154;2023-04-15T14:43:06;18.30;;;2.10;;
2023;SDS011;1016;48.770;9.154;2023-04-15T14:45:32;18.30;;;2.00;;
2023;SDS011;1016;48.770;9.154;2023-04-15T14:47:58;17.77;;;1.80;;
2023;SDS011;1016;48.770;9.154;2023-04-15T14:50:23;17.30;;;1.83;;
2023;SDS011;1016;48.770;9.154;2023-04-15T14:52:49;17.80;;;1.63;;
2023;SDS011;1016;48.770;9.154;2023-04-15T14:55:14;16.87;;;1.67;;
2023;SDS011;1016;48.770;9.154;2023-04-15T14:57:41;18.33;;;1.87;;
2023;SDS011;1016;48.770;9.154;2023-04-15T15:00:07;17.70;;;1.80;;
2023;SDS011;1016;48.770;9.154;2023-04-15T15:02:35;17.77;;;1.80;;
2023;SDS011;1016;48.770;9.154;2023-04-15T15:05:03;17.90;;;2.20;;
2023;SDS011;1016;48.770;9.154;2023-04-15T15:07:28;18.07;;;2.20;;
2023;SDS011;1016;48.770;9.154;2023-04-15T15:09:54;17.80;;;1.90;;
2023;SDS011;1016;48.770;9.154;2023-04-15T15:12:20;17.30;;;2.13;;
2023;SDS011;1016;48.770;9.154;2023-04-15T15:14:48;19.20;;;2.40;;
2023;SDS011;1016;48.770;9.154;2023-04-15T15:17:14;17.27;;;1.70;;
2023;SDS011;1016;48.770;9.154;2023-04-15T15:19:39;17.93;;;1.97;;